Time;durP1;ratioP1;P1;durP2;ratioP2;P2;SDS_P1;SDS_P2;PMS_P1;PMS_P2;Temp;Humidity;BMP_temperature;BMP_pressure;BME280_temperature;BME280_humidity;BME280_pressure;Samples;Min_cycle;Max_cycle;Signal;HPM_P1;HPM_P2
2022/08/15 00:01:16;;;;;;;;;;;25.40;96.60;;;;;;5066005;28;19911;-59
2022/08/15 00:03:44;;;;;;;;;;;25.40;96.60;;;;;;5066371;28;19917;-54
2022/08/15 00:06:12;;;;;;;;;;;25.40;96.70;;;;;;5064242;28;19975;-55
2022/08/15 00:08:43;;;;;;;;;;;25.40;96.70;;;;;;5055458;28;20208;-63
2022/08/15 00:11:11;;;;;;;;;;;25.30;96.70;;;;;;5077445;28;20073;-61
2022/08/15 00:13:38;;;;;;;;;;;25.30;96.70;;;;;;5055995;28;19964;-55
2022/08/15 00:16:05;;;;;;;;;;;25.30;96.70;;;;;;5059943;28;19931;-60
2022/08/15 00:18:32;;;;;;;;;;;25.30;96.80;;;;;;5045691;28;19920;-53
2022/08/15 00:21:00;;;;;;;;;;;25.30;96.80;;;;;;5046033;28;19905;-61
2022/08/15 00:23:27;;;;;;;;;;;25.30;96.90;;;;;;5046079;28;19924;-56
2022/08/15 00:25:57;;;;;;;;;;;25.20;96.90;;;;;;5045900;28;19964;-61
2022/08/15 00:28:25;;;;;;;;;;;25.30;97.10;;;;;;5046163;28;19913;-61
2022/08/15 00:30:51;;;;;;;;;;;25.20;96.90;;;;;;5045647;28;19909;-55
2022/08/15 00:33:18;;;;;;;;;;;25.30;97.00;;;;;;5045998;28;20077;-53
2022/08/15 00:35:45;;;;;;;;;;;25.30;97.00;;;;;;5045896;28;19913;-55
2022/08/15 00:38:15;;;;;;;;;;;25.20;97.00;;;;;;5060975;28;19913;-56
2022/08/15 00:43:27;;;;;;;;;;;25.20;96.90;;;;;;5045551;28;19924;-53
2022/08/15 00:45:53;;;;;;;;;;;25.20;97.00;;;;;;5045463;28;19966;-56
2022/08/15 00:51:08;;;;;;;;;;;25.20;97.00;;;;;;5045658;28;20244;-54
2022/08/15 00:53:34;;;;;;;;;;;25.10;97.00;;;;;;5045655;28;20239;-57
2022/08/15 00:56:01;;;;;;;;;;;25.10;97.00;;;;;;5045053;28;19912;-60
2022/08/15 00:58:27;;;;;;;;;;;25.10;97.00;;;;;;5045513;28;19913;-57
2022/08/15 01:00:54;;;;;;;;;;;25.10;97.10;;;;;;5045243;28;19932;-55
2022/08/15 01:03:25;;;;;;;;;;;25.10;97.10;;;;;;5044996;28;20102;-56
2022/08/15 01:05:53;;;;;;;;;;;25.10;97.10;;;;;;5044908;28;19909;-49
2022/08/15 01:08:24;;;;;;;;;;;25.10;97.10;;;;;;5044212;28;20089;-46
2022/08/15 01:10:51;;;;;;;;;;;25.10;97.10;;;;;;5044750;28;20242;-51
2022/08/15 01:13:18;;;;;;;;;;;25.10;97.00;;;;;;5044841;28;19921;-54
2022/08/15 01:15:44;;;;;;;;;;;25.10;97.10;;;;;;5045027;28;19940;-52
2022/08/15 01:18:10;;;;;;;;;;;25.20;97.00;;;;;;5045135;28;19920;-56
2022/08/15 01:20:37;;;;;;;;;;;25.10;96.70;;;;;;5045034;28;19983;-47
2022/08/15 01:23:12;;;;;;;;;;;25.10;96.80;;;;;;5059990;28;19917;-53
2022/08/15 01:25:46;;;;;;;;;;;25.20;96.90;;;;;;5044900;28;19948;-50
2022/08/15 01:28:17;;;;;;;;;;;25.10;96.70;;;;;;5044850;28;20150;-51
2022/08/15 01:31:02;;;;;;;;;;;25.20;96.70;;;;;;5044479;28;19916;-51
2022/08/15 01:33:29;;;;;;;;;;;25.20;96.80;;;;;;5049676;28;19919;-51
2022/08/15 01:35:55;;;;;;;;;;;25.20;96.70;;;;;;5063866;28;19916;-54
2022/08/15 01:38:24;;;;;;;;;;;25.20;96.60;;;;;;5064345;28;19927;-52
2022/08/15 01:41:03;;;;;;;;;;;25.20;96.60;;;;;;5064464;28;19994;-54
2022/08/15 01:43:33;;;;;;;;;;;25.20;96.50;;;;;;5064452;28;19916;-55
2022/08/15 01:46:02;;;;;;;;;;;25.20;96.40;;;;;;5064437;28;19916;-55
2022/08/15 01:48:37;;;;;;;;;;;25.20;96.30;;;;;;5064646;28;19947;-52
2022/08/15 01:51:06;;;;;;;;;;;25.30;96.30;;;;;;5064369;28;20096;-52
2022/08/15 01:53:36;;;;;;;;;;;25.30;96.20;;;;;;5064515;28;19913;-53
2022/08/15 01:56:03;;;;;;;;;;;25.30;96.10;;;;;;5064069;28;19912;-55
2022/08/15 01:58:30;;;;;;;;;;;25.30;96.10;;;;;;5064693;28;19935;-54
2022/08/15 02:00:59;;;;;;;;;;;25.40;96.00;;;;;;5064146;28;19908;-53
2022/08/15 02:03:33;;;;;;;;;;;25.40;96.00;;;;;;5064300;28;20112;-53
2022/08/15 02:06:01;;;;;;;;;;;25.40;95.90;;;;;;5064480;28;19916;-55
2022/08/15 02:08:27;;;;;;;;;;;25.40;95.80;;;;;;5064278;28;20094;-55
2022/08/15 02:10:53;;;;;;;;;;;25.40;95.80;;;;;;5063997;28;19979;-52
2022/08/15 02:13:20;;;;;;;;;;;25.40;95.70;;;;;;5064164;28;19920;-53
2022/08/15 02:15:46;;;;;;;;;;;25.40;95.70;;;;;;5064015;28;20252;-55
2022/08/15 02:18:12;;;;;;;;;;;25.40;95.70;;;;;;5064109;28;19984;-55
2022/08/15 02:20:38;;;;;;;;;;;25.40;95.60;;;;;;5064056;28;20252;-54
2022/08/15 02:23:05;;;;;;;;;;;25.40;95.70;;;;;;5063949;28;19916;-52
2022/08/15 02:25:31;;;;;;;;;;;25.40;95.70;;;;;;5066492;28;19972;-53
2022/08/15 02:27:57;;;;;;;;;;;25.40;95.70;;;;;;5068299;28;19959;-54
2022/08/15 02:30:25;;;;;;;;;;;25.40;95.60;;;;;;5067915;28;19908;-53
2022/08/15 02:32:51;;;;;;;;;;;25.40;95.60;;;;;;5068015;28;19912;-55
2022/08/15 02:35:17;;;;;;;;;;;25.40;95.60;;;;;;5067960;28;20139;-51
2022/08/15 02:37:44;;;;;;;;;;;25.40;95.50;;;;;;5067849;28;19958;-55
2022/08/15 02:40:12;;;;;;;;;;;25.40;95.60;;;;;;5067585;28;20251;-52
2022/08/15 02:42:39;;;;;;;;;;;25.40;95.50;;;;;;5067580;28;19938;-57
2022/08/15 02:45:10;;;;;;;;;;;25.40;95.40;;;;;;5067609;28;20193;-51
2022/08/15 02:47:43;;;;;;;;;;;25.40;95.40;;;;;;5067608;28;19913;-55
2022/08/15 02:50:10;;;;;;;;;;;25.40;95.40;;;;;;5067652;28;19913;-53
2022/08/15 02:52:40;;;;;;;;;;;25.40;95.30;;;;;;5067407;28;19913;-51
2022/08/15 02:55:07;;;;;;;;;;;25.40;95.40;;;;;;5067512;28;20065;-53
2022/08/15 02:57:33;;;;;;;;;;;25.40;95.30;;;;;;5067635;28;19942;-51
2022/08/15 02:59:59;;;;;;;;;;;25.40;95.40;;;;;;5067460;28;20267;-52
2022/08/15 03:02:26;;;;;;;;;;;25.30;95.30;;;;;;5067280;28;19913;-52
2022/08/15 03:04:52;;;;;;;;;;;25.30;95.30;;;;;;5067333;28;19908;-56
2022/08/15 03:07:18;;;;;;;;;;;25.30;95.20;;;;;;5067196;28;19972;-55
2022/08/15 03:09:44;;;;;;;;;;;25.30;95.20;;;;;;5067147;28;19950;-54
2022/08/15 03:12:15;;;;;;;;;;;25.30;95.20;;;;;;5067331;28;19908;-56
2022/08/15 03:14:41;;;;;;;;;;;25.30;95.20;;;;;;5067002;28;19995;-55
2022/08/15 03:17:09;;;;;;;;;;;25.30;95.20;;;;;;5066950;28;19908;-54
2022/08/15 03:19:36;;;;;;;;;;;25.30;95.20;;;;;;5067075;28;20245;-58
2022/08/15 03:22:03;;;;;;;;;;;25.30;95.20;;;;;;5066707;28;19923;-52
2022/08/15 03:24:32;;;;;;;;;;;25.30;95.10;;;;;;5066981;28;19929;-53
2022/08/15 03:26:58;;;;;;;;;;;25.30;95.10;;;;;;5066841;28;20192;-54
2022/08/15 03:29:26;;;;;;;;;;;25.30;95.10;;;;;;5066849;28;19909;-57
2022/08/15 03:31:52;;;;;;;;;;;25.30;95.10;;;;;;5066669;28;19909;-57
2022/08/15 03:34:20;;;;;;;;;;;25.30;95.10;;;;;;5067373;28;19920;-54
2022/08/15 03:36:46;;;;;;;;;;;25.30;95.00;;;;;;5065952;28;19982;-54
2022/08/15 03:39:13;;;;;;;;;;;25.30;95.10;;;;;;5067023;28;19913;-53
2022/08/15 03:41:40;;;;;;;;;;;25.20;95.00;;;;;;5066581;28;19909;-52
2022/08/15 03:44:06;;;;;;;;;;;25.20;95.00;;;;;;5067004;28;19924;-55
2022/08/15 03:46:32;;;;;;;;;;;25.20;95.00;;;;;;5066260;28;19927;-52
2022/08/15 03:48:58;;;;;;;;;;;25.20;95.00;;;;;;5066900;28;19996;-56
2022/08/15 03:51:25;;;;;;;;;;;25.20;95.00;;;;;;5066214;28;19909;-54
2022/08/15 03:53:54;;;;;;;;;;;25.20;95.00;;;;;;5066634;28;19920;-56
2022/08/15 03:56:22;;;;;;;;;;;25.20;95.00;;;;;;5066365;28;19908;-56
2022/08/15 03:58:48;;;;;;;;;;;25.20;95.00;;;;;;5066745;28;19913;-56
2022/08/15 04:01:17;;;;;;;;;;;25.20;95.00;;;;;;5066015;28;19904;-56
2022/08/15 04:03:44;;;;;;;;;;;25.20;95.00;;;;;;5066455;28;19917;-54
2022/08/15 04:06:11;;;;;;;;;;;25.20;95.10;;;;;;5065895;28;20096;-53
2022/08/15 04:08:38;;;;;;;;;;;25.20;95.00;;;;;;5066282;28;19912;-55
2022/08/15 04:11:05;;;;;;;;;;;25.20;95.00;;;;;;5066191;28;20108;-54
2022/08/15 04:13:32;;;;;;;;;;;25.20;95.00;;;;;;5066064;28;20263;-55
2022/08/15 04:15:59;;;;;;;;;;;25.20;95.00;;;;;;5065722;28;19979;-51
2022/08/15 04:18:27;;;;;;;;;;;25.20;95.10;;;;;;5066223;28;19966;-53
2022/08/15 04:20:57;;;;;;;;;;;25.20;95.10;;;;;;5065566;28;19915;-55
2022/08/15 04:23:23;;;;;;;;;;;25.20;95.10;;;;;;5065927;28;19924;-52
2022/08/15 04:25:50;;;;;;;;;;;25.10;95.10;;;;;;5065878;28;19909;-50
2022/08/15 04:28:18;;;;;;;;;;;25.10;95.10;;;;;;5066010;28;19983;-53
2022/08/15 04:30:45;;;;;;;;;;;25.20;95.10;;;;;;5065464;28;19908;-53
2022/08/15 04:33:11;;;;;;;;;;;25.20;95.10;;;;;;5065864;28;19920;-51
2022/08/15 04:35:39;;;;;;;;;;;25.20;95.10;;;;;;5065350;28;19904;-50
2022/08/15 04:38:05;;;;;;;;;;;25.20;95.10;;;;;;5065609;28;20027;-53
2022/08/15 04:40:31;;;;;;;;;;;25.10;95.10;;;;;;5065596;28;19909;-54
2022/08/15 04:42:59;;;;;;;;;;;25.10;95.20;;;;;;5065592;28;19947;-54
2022/08/15 04:45:27;;;;;;;;;;;25.10;95.30;;;;;;5065201;28;19916;-50
2022/08/15 04:47:53;;;;;;;;;;;25.10;95.40;;;;;;5064587;28;19932;-53
2022/08/15 04:50:20;;;;;;;;;;;25.10;95.40;;;;;;5065042;28;19975;-50
2022/08/15 04:52:55;;;;;;;;;;;25.10;95.50;;;;;;5065295;28;19913;-51
2022/08/15 04:55:24;;;;;;;;;;;25.10;95.40;;;;;;5065407;28;19905;-56
2022/08/15 04:57:50;;;;;;;;;;;25.10;95.50;;;;;;5065135;28;19913;-57
2022/08/15 05:00:20;;;;;;;;;;;25.10;95.50;;;;;;5064881;28;19912;-58
2022/08/15 05:03:05;;;;;;;;;;;25.10;95.50;;;;;;5065118;28;19958;-60
2022/08/15 05:05:34;;;;;;;;;;;25.10;95.50;;;;;;5064618;28;19908;-53
2022/08/15 05:08:00;;;;;;;;;;;25.10;95.50;;;;;;5065170;28;19991;-53
2022/08/15 05:10:27;;;;;;;;;;;25.10;95.50;;;;;;5065030;28;20193;-51
2022/08/15 05:12:53;;;;;;;;;;;25.10;95.50;;;;;;5064576;28;19916;-52
2022/08/15 05:15:21;;;;;;;;;;;25.10;95.50;;;;;;5063610;28;19915;-53
2022/08/15 05:17:47;;;;;;;;;;;25.10;95.50;;;;;;5063680;28;19913;-53
2022/08/15 05:20:14;;;;;;;;;;;25.10;95.50;;;;;;5063596;28;19916;-53
2022/08/15 05:23:00;;;;;;;;;;;25.10;95.50;;;;;;5063707;28;19960;-52
2022/08/15 05:25:27;;;;;;;;;;;25.10;95.50;;;;;;5063530;28;19913;-53
2022/08/15 05:27:53;;;;;;;;;;;25.10;95.50;;;;;;5063963;28;19909;-51
2022/08/15 05:30:20;;;;;;;;;;;25.10;95.50;;;;;;5064655;28;19971;-52
2022/08/15 05:32:47;;;;;;;;;;;25.10;95.60;;;;;;5064592;28;19916;-57
2022/08/15 05:35:14;;;;;;;;;;;25.10;95.50;;;;;;5064691;28;19905;-51
2022/08/15 05:37:40;;;;;;;;;;;25.10;95.50;;;;;;5064560;28;19912;-51
2022/08/15 05:40:07;;;;;;;;;;;25.10;95.50;;;;;;5064331;28;19905;-54
2022/08/15 05:42:57;;;;;;;;;;;25.10;95.50;;;;;;5064820;28;19925;-54
2022/08/15 05:45:27;;;;;;;;;;;25.10;95.50;;;;;;5064253;28;19909;-54
2022/08/15 05:48:08;;;;;;;;;;;25.10;95.50;;;;;;5064892;28;19935;-52
2022/08/15 05:50:37;;;;;;;;;;;25.10;95.50;;;;;;5064596;28;19916;-51
2022/08/15 05:53:07;;;;;;;;;;;25.10;95.50;;;;;;5064705;28;19928;-56
2022/08/15 05:55:52;;;;;;;;;;;25.00;95.80;;;;;;5064354;28;19909;-52
2022/08/15 05:58:18;;;;;;;;;;;25.10;95.60;;;;;;5064020;28;19920;-50
2022/08/15 06:00:47;;;;;;;;;;;25.00;95.60;;;;;;5064533;28;19975;-51
2022/08/15 06:03:19;;;;;;;;;;;25.00;95.60;;;;;;5064427;28;19923;-54
2022/08/15 06:05:50;;;;;;;;;;;25.10;95.60;;;;;;5064304;28;19986;-55
2022/08/15 06:08:28;;;;;;;;;;;25.00;95.60;;;;;;5064445;28;20181;-51
2022/08/15 06:11:12;;;;;;;;;;;25.00;95.60;;;;;;5064203;28;19909;-56
2022/08/15 06:13:43;;;;;;;;;;;25.00;95.60;;;;;;5064154;28;20278;-54
2022/08/15 06:16:28;;;;;;;;;;;25.00;95.60;;;;;;5063984;28;19948;-53
2022/08/15 06:18:55;;;;;;;;;;;25.00;95.60;;;;;;5064010;28;19912;-53
2022/08/15 06:21:37;;;;;;;;;;;25.10;95.70;;;;;;5063947;28;19909;-53
2022/08/15 06:24:12;;;;;;;;;;;25.00;95.60;;;;;;5064421;28;19917;-53
2022/08/15 06:26:38;;;;;;;;;;;25.00;95.60;;;;;;5064103;28;19909;-51
2022/08/15 06:29:19;;;;;;;;;;;25.00;95.60;;;;;;5064503;28;19913;-52
2022/08/15 06:31:53;;;;;;;;;;;25.00;95.70;;;;;;5063768;28;19909;-52
2022/08/15 06:34:31;;;;;;;;;;;25.00;95.70;;;;;;5064672;28;20319;-51
2022/08/15 06:37:06;;;;;;;;;;;25.00;95.70;;;;;;5064013;28;19999;-56
2022/08/15 06:39:40;;;;;;;;;;;25.00;95.70;;;;;;5064137;28;19990;-51
2022/08/15 06:42:13;;;;;;;;;;;25.00;95.70;;;;;;5063777;28;19919;-51
2022/08/15 06:44:40;;;;;;;;;;;25.00;95.70;;;;;;5063781;28;19931;-53
2022/08/15 06:47:07;;;;;;;;;;;25.00;95.70;;;;;;5063882;28;20179;-50
2022/08/15 06:49:39;;;;;;;;;;;25.00;95.70;;;;;;5063869;28;19916;-54
2022/08/15 06:52:06;;;;;;;;;;;25.00;95.70;;;;;;5063827;28;19971;-55
2022/08/15 06:54:32;;;;;;;;;;;25.00;95.70;;;;;;5063893;28;19909;-51
2022/08/15 06:56:58;;;;;;;;;;;25.00;95.70;;;;;;5063701;28;19924;-56
2022/08/15 06:59:54;;;;;;;;;;;25.00;95.80;;;;;;5063666;28;19924;-51
2022/08/15 07:02:23;;;;;;;;;;;25.00;95.70;;;;;;5061778;28;20188;-51
2022/08/15 07:04:50;;;;;;;;;;;25.00;95.70;;;;;;5063897;28;20189;-58
2022/08/15 07:07:32;;;;;;;;;;;25.00;95.80;;;;;;5063833;28;19987;-54
2022/08/15 07:10:05;;;;;;;;;;;25.00;95.80;;;;;;5063749;28;20194;-56
2022/08/15 07:12:50;;;;;;;;;;;25.00;95.80;;;;;;5067534;28;19913;-51
2022/08/15 07:15:29;;;;;;;;;;;25.00;95.80;;;;;;5067161;28;20007;-59
2022/08/15 07:17:58;;;;;;;;;;;25.00;95.80;;;;;;5067297;28;19912;-55
2022/08/15 07:20:25;;;;;;;;;;;25.00;95.80;;;;;;5067126;28;19909;-51
2022/08/15 07:22:52;;;;;;;;;;;25.00;95.80;;;;;;5067140;28;19975;-52
2022/08/15 07:25:19;;;;;;;;;;;25.00;95.80;;;;;;5067387;28;19912;-56
2022/08/15 07:27:55;;;;;;;;;;;25.00;95.90;;;;;;5067189;28;19948;-51
2022/08/15 07:30:26;;;;;;;;;;;25.00;95.80;;;;;;5066970;28;20064;-51
2022/08/15 07:32:55;;;;;;;;;;;25.00;95.90;;;;;;5067328;28;20185;-51
2022/08/15 07:35:27;;;;;;;;;;;25.00;95.90;;;;;;5066771;28;19909;-51
2022/08/15 07:37:58;;;;;;;;;;;24.90;95.80;;;;;;5067434;28;19947;-51
2022/08/15 07:40:25;;;;;;;;;;;25.00;95.90;;;;;;5067016;28;19917;-51
2022/08/15 07:42:52;;;;;;;;;;;25.00;95.90;;;;;;5066540;28;19958;-51
2022/08/15 07:45:18;;;;;;;;;;;24.90;95.90;;;;;;5066597;28;19916;-53
2022/08/15 07:47:55;;;;;;;;;;;25.00;95.90;;;;;;5066601;28;19919;-53
2022/08/15 07:50:25;;;;;;;;;;;25.00;95.90;;;;;;5066949;28;19970;-50
2022/08/15 07:52:56;;;;;;;;;;;25.00;95.90;;;;;;5066568;28;19975;-52
2022/08/15 07:55:22;;;;;;;;;;;25.00;95.90;;;;;;5066439;28;20196;-54
2022/08/15 07:58:09;;;;;;;;;;;25.00;95.90;;;;;;5066590;28;19913;-53
2022/08/15 08:00:35;;;;;;;;;;;25.00;95.90;;;;;;5066034;28;19908;-51
2022/08/15 08:03:04;;;;;;;;;;;25.00;95.90;;;;;;5066569;28;19920;-51
2022/08/15 08:05:42;;;;;;;;;;;25.00;95.90;;;;;;5066123;28;19911;-53
2022/08/15 08:08:08;;;;;;;;;;;25.00;96.00;;;;;;5066700;28;19919;-52
2022/08/15 08:10:39;;;;;;;;;;;25.00;96.00;;;;;;5066332;28;19909;-51
2022/08/15 08:13:08;;;;;;;;;;;25.00;96.00;;;;;;5066314;28;20000;-52
2022/08/15 08:15:50;;;;;;;;;;;25.00;96.00;;;;;;5066071;28;19976;-52
2022/08/15 08:18:28;;;;;;;;;;;25.00;96.00;;;;;;5065866;28;19952;-53
2022/08/15 08:21:01;;;;;;;;;;;25.00;96.00;;;;;;5066085;28;19912;-52
2022/08/15 08:23:28;;;;;;;;;;;25.00;96.00;;;;;;5066148;28;19930;-52
2022/08/15 08:26:00;;;;;;;;;;;25.00;96.00;;;;;;5066102;28;19909;-59
2022/08/15 08:28:35;;;;;;;;;;;25.00;96.00;;;;;;5065723;28;19917;-51
2022/08/15 08:31:27;;;;;;;;;;;25.00;96.00;;;;;;5065941;28;19975;-51
2022/08/15 08:34:12;;;;;;;;;;;25.00;95.90;;;;;;5064722;28;19961;-53
2022/08/15 08:36:56;;;;;;;;;;;25.00;96.00;;;;;;5065794;28;19976;-51
2022/08/15 08:39:35;;;;;;;;;;;25.00;96.00;;;;;;5065585;28;19931;-51
2022/08/15 08:42:19;;;;;;;;;;;25.00;96.00;;;;;;5065477;28;19909;-55
2022/08/15 08:44:51;;;;;;;;;;;25.00;96.00;;;;;;5065433;28;20264;-53
2022/08/15 08:47:49;;;;;;;;;;;25.00;96.00;;;;;;5065741;28;20160;-52
2022/08/15 08:50:24;;;;;;;;;;;25.00;96.00;;;;;;5064400;28;19940;-57
2022/08/15 08:52:57;;;;;;;;;;;25.00;96.00;;;;;;5065435;28;19909;-51
2022/08/15 08:55:33;;;;;;;;;;;25.00;96.00;;;;;;5065319;28;19916;-54
2022/08/15 08:58:03;;;;;;;;;;;25.00;96.00;;;;;;5065100;28;19913;-55
2022/08/15 09:00:44;;;;;;;;;;;24.90;96.00;;;;;;5065150;28;19909;-50
2022/08/15 09:03:31;;;;;;;;;;;25.00;96.10;;;;;;5065236;28;19936;-50
2022/08/15 09:05:58;;;;;;;;;;;24.90;96.00;;;;;;5065098;28;19908;-51
2022/08/15 09:08:32;;;;;;;;;;;25.00;96.10;;;;;;5065314;28;19919;-54
2022/08/15 09:11:02;;;;;;;;;;;24.90;96.10;;;;;;5065017;28;19996;-51
2022/08/15 09:13:35;;;;;;;;;;;24.90;96.10;;;;;;5065031;28;20200;-54
2022/08/15 09:16:05;;;;;;;;;;;25.00;96.10;;;;;;5064846;28;19966;-51
2022/08/15 09:18:33;;;;;;;;;;;25.00;96.10;;;;;;5065204;28;19920;-51
2022/08/15 09:20:59;;;;;;;;;;;24.90;96.10;;;;;;5064948;28;19909;-54
2022/08/15 09:23:28;;;;;;;;;;;24.90;96.10;;;;;;5064959;28;19921;-54
2022/08/15 09:26:02;;;;;;;;;;;24.90;96.10;;;;;;5064985;28;19911;-55
2022/08/15 09:28:28;;;;;;;;;;;24.90;96.10;;;;;;5064620;28;19920;-53
2022/08/15 09:30:55;;;;;;;;;;;25.00;96.10;;;;;;5064573;28;20081;-59
2022/08/15 09:33:27;;;;;;;;;;;24.90;96.10;;;;;;5064559;28;19951;-55
2022/08/15 09:35:56;;;;;;;;;;;24.90;96.10;;;;;;5064465;28;19909;-56
2022/08/15 09:38:26;;;;;;;;;;;25.00;96.10;;;;;;5064785;28;20305;-51
2022/08/15 09:41:10;;;;;;;;;;;24.90;96.10;;;;;;5064517;28;19954;-52
2022/08/15 09:43:55;;;;;;;;;;;24.90;96.20;;;;;;5064817;28;19944;-51
2022/08/15 09:46:27;;;;;;;;;;;25.00;96.20;;;;;;5064665;28;19940;-52
2022/08/15 09:49:22;;;;;;;;;;;25.00;96.20;;;;;;5064887;28;19913;-51
2022/08/15 09:52:06;;;;;;;;;;;24.90;96.20;;;;;;5062809;28;20104;-52
2022/08/15 09:54:43;;;;;;;;;;;24.90;96.20;;;;;;5064538;28;19913;-51
2022/08/15 09:57:28;;;;;;;;;;;25.00;96.20;;;;;;5064079;28;19909;-51
2022/08/15 09:59:59;;;;;;;;;;;24.90;96.20;;;;;;5064256;28;19915;-52
2022/08/15 10:02:27;;;;;;;;;;;24.90;96.30;;;;;;5063952;28;19913;-52
2022/08/15 10:04:55;;;;;;;;;;;24.90;96.20;;;;;;5064071;28;19984;-54
2022/08/15 10:07:39;;;;;;;;;;;24.90;96.20;;;;;;5064114;28;19909;-52
2022/08/15 10:10:10;;;;;;;;;;;24.90;96.20;;;;;;5064337;28;19909;-51
2022/08/15 10:12:37;;;;;;;;;;;24.90;96.20;;;;;;5064043;28;19948;-52
2022/08/15 10:15:25;;;;;;;;;;;24.90;96.30;;;;;;5063912;28;19940;-52
2022/08/15 10:17:52;;;;;;;;;;;24.90;96.50;;;;;;5063546;28;19920;-53
2022/08/15 10:20:29;;;;;;;;;;;24.90;96.30;;;;;;5064386;28;20242;-52
2022/08/15 10:22:57;;;;;;;;;;;24.90;96.30;;;;;;5064166;28;19916;-53
2022/08/15 10:25:37;;;;;;;;;;;24.90;96.30;;;;;;5063946;28;19979;-52
2022/08/15 10:28:09;;;;;;;;;;;24.90;96.30;;;;;;5064752;28;19912;-54
2022/08/15 10:30:46;;;;;;;;;;;24.90;96.30;;;;;;5063739;28;19916;-53
2022/08/15 10:33:23;;;;;;;;;;;24.90;96.30;;;;;;5064137;28;19913;-57
2022/08/15 10:35:51;;;;;;;;;;;24.90;96.30;;;;;;5064306;28;20184;-53
2022/08/15 10:38:25;;;;;;;;;;;24.90;96.30;;;;;;5064119;28;19944;-51
2022/08/15 10:41:07;;;;;;;;;;;24.90;96.30;;;;;;5064239;28;19976;-53
2022/08/15 10:43:41;;;;;;;;;;;24.90;96.40;;;;;;5064087;28;19925;-52
2022/08/15 10:46:20;;;;;;;;;;;24.90;96.40;;;;;;5065748;28;19909;-54
2022/08/15 10:49:13;;;;;;;;;;;24.90;96.30;;;;;;5068055;28;19913;-53
2022/08/15 10:51:48;;;;;;;;;;;24.90;96.40;;;;;;5067590;28;19912;-55
2022/08/15 10:54:24;;;;;;;;;;;24.90;96.40;;;;;;5068471;28;19976;-53
2022/08/15 10:56:54;;;;;;;;;;;24.90;96.40;;;;;;5067621;28;19939;-54
2022/08/15 10:59:22;;;;;;;;;;;24.90;96.40;;;;;;5068067;28;19988;-55
2022/08/15 11:01:51;;;;;;;;;;;24.90;96.40;;;;;;5067576;28;19905;-53
2022/08/15 11:04:29;;;;;;;;;;;24.90;96.40;;;;;;5067651;28;19963;-53
2022/08/15 11:06:56;;;;;;;;;;;24.90;96.40;;;;;;5067786;28;19916;-54
2022/08/15 11:09:23;;;;;;;;;;;24.90;96.40;;;;;;5067282;28;20228;-51
2022/08/15 11:11:54;;;;;;;;;;;24.90;96.40;;;;;;5067191;28;19915;-53
2022/08/15 11:14:26;;;;;;;;;;;24.90;96.40;;;;;;5067153;28;20205;-58
2022/08/15 11:16:52;;;;;;;;;;;24.90;96.40;;;;;;5067124;28;20193;-53
2022/08/15 11:19:33;;;;;;;;;;;24.90;96.40;;;;;;5067823;28;19929;-51
2022/08/15 11:22:01;;;;;;;;;;;24.90;96.40;;;;;;5067040;28;20100;-53
2022/08/15 11:24:33;;;;;;;;;;;24.90;96.40;;;;;;5066893;28;20216;-54
2022/08/15 11:27:16;;;;;;;;;;;24.90;96.50;;;;;;5066869;28;19915;-58
2022/08/15 11:29:44;;;;;;;;;;;25.00;96.50;;;;;;5067071;28;19916;-52
2022/08/15 11:32:13;;;;;;;;;;;24.90;96.50;;;;;;5067294;28;20131;-51
2022/08/15 11:34:44;;;;;;;;;;;25.00;96.50;;;;;;5066730;28;19936;-51
2022/08/15 11:37:15;;;;;;;;;;;25.00;96.50;;;;;;5066587;28;19908;-53
2022/08/15 11:39:43;;;;;;;;;;;25.00;96.50;;;;;;5067145;28;19908;-51
2022/08/15 11:42:14;;;;;;;;;;;25.00;96.60;;;;;;5066597;28;19976;-53
2022/08/15 11:44:43;;;;;;;;;;;25.00;96.60;;;;;;5067100;28;19956;-52
2022/08/15 11:47:15;;;;;;;;;;;25.00;96.60;;;;;;5066592;28;19911;-54
2022/08/15 11:49:46;;;;;;;;;;;25.00;96.60;;;;;;5066600;28;19951;-51
2022/08/15 11:52:12;;;;;;;;;;;25.00;96.60;;;;;;5066754;28;20101;-54
2022/08/15 11:54:38;;;;;;;;;;;25.10;96.60;;;;;;5066580;28;19909;-56
2022/08/15 11:57:05;;;;;;;;;;;25.10;96.60;;;;;;5065800;28;19908;-52
2022/08/15 11:59:35;;;;;;;;;;;25.10;96.60;;;;;;5066456;28;19932;-53
2022/08/15 12:02:20;;;;;;;;;;;25.10;96.60;;;;;;5065789;28;19994;-53
2022/08/15 12:04:50;;;;;;;;;;;25.10;96.60;;;;;;5066142;28;19979;-52
2022/08/15 12:07:19;;;;;;;;;;;25.10;96.60;;;;;;5066448;28;19955;-53
2022/08/15 12:10:00;;;;;;;;;;;25.20;96.60;;;;;;5066091;28;20018;-55
2022/08/15 12:12:53;;;;;;;;;;;25.20;96.60;;;;;;5066247;28;19913;-58
2022/08/15 12:15:35;;;;;;;;;;;25.30;96.60;;;;;;5064982;28;19924;-55
2022/08/15 12:18:01;;;;;;;;;;;25.30;96.60;;;;;;5066136;28;19920;-54
2022/08/15 12:20:34;;;;;;;;;;;25.30;96.50;;;;;;5066032;28;19983;-54
2022/08/15 12:23:18;;;;;;;;;;;25.40;96.50;;;;;;5066259;28;19913;-54
2022/08/15 12:25:44;;;;;;;;;;;25.40;96.50;;;;;;5065944;28;19980;-53
2022/08/15 12:28:10;;;;;;;;;;;25.50;96.50;;;;;;5066179;28;19944;-55
2022/08/15 12:30:36;;;;;;;;;;;25.50;96.50;;;;;;5065671;28;19915;-56
2022/08/15 12:33:03;;;;;;;;;;;25.50;96.40;;;;;;5065978;28;20177;-53
2022/08/15 12:35:30;;;;;;;;;;;25.60;96.50;;;;;;5066175;28;19909;-51
2022/08/15 12:37:57;;;;;;;;;;;25.60;96.50;;;;;;5066011;28;19940;-54
2022/08/15 12:40:24;;;;;;;;;;;25.60;96.50;;;;;;5065834;28;19917;-52
2022/08/15 12:42:50;;;;;;;;;;;25.60;96.50;;;;;;5065452;28;19916;-53
2022/08/15 12:45:18;;;;;;;;;;;25.60;96.50;;;;;;5065608;28;20015;-56
2022/08/15 12:47:45;;;;;;;;;;;25.70;96.60;;;;;;5065702;28;19924;-53
2022/08/15 12:50:11;;;;;;;;;;;25.70;96.60;;;;;;5065458;28;19905;-53
2022/08/15 12:52:38;;;;;;;;;;;25.70;96.60;;;;;;5065436;28;19987;-53
2022/08/15 12:55:04;;;;;;;;;;;25.70;96.60;;;;;;5065227;28;19904;-53
2022/08/15 12:57:31;;;;;;;;;;;25.70;96.70;;;;;;5065627;28;20088;-55
2022/08/15 12:59:57;;;;;;;;;;;25.70;96.70;;;;;;5065239;28;20216;-54
2022/08/15 13:02:24;;;;;;;;;;;25.70;96.70;;;;;;5065184;28;19908;-53
2022/08/15 13:04:53;;;;;;;;;;;25.70;96.70;;;;;;5065228;28;19919;-51
2022/08/15 13:07:19;;;;;;;;;;;25.70;96.80;;;;;;5065051;28;19913;-51
2022/08/15 13:09:46;;;;;;;;;;;25.80;96.90;;;;;;5064247;28;19909;-51
2022/08/15 13:12:13;;;;;;;;;;;25.80;96.90;;;;;;5064987;28;19909;-53
2022/08/15 13:14:39;;;;;;;;;;;25.80;96.90;;;;;;5064839;28;19963;-51
2022/08/15 13:17:06;;;;;;;;;;;25.90;96.90;;;;;;5064759;28;19909;-54
2022/08/15 13:23:34;;;;;;;;;;;25.90;96.90;;;;;;5063740;28;20107;-52
2022/08/15 13:25:06;;;;;;;;;;;25.90;96.80;;;;;;5064782;28;19951;-50
2022/08/15 13:27:33;;;;;;;;;;;25.90;96.80;;;;;;5064744;28;19913;-52
2022/08/15 13:30:00;;;;;;;;;;;26.00;96.90;;;;;;5064660;28;19909;-54
2022/08/15 13:32:26;;;;;;;;;;;26.00;96.60;;;;;;5064694;28;19986;-51
2022/08/15 13:34:52;;;;;;;;;;;26.00;96.70;;;;;;5064841;28;19909;-58
2022/08/15 13:37:18;;;;;;;;;;;26.10;96.50;;;;;;5064636;28;20096;-52
2022/08/15 13:39:45;;;;;;;;;;;26.10;96.50;;;;;;5064654;28;20227;-54
2022/08/15 13:42:12;;;;;;;;;;;26.10;96.60;;;;;;5064373;28;19923;-52
2022/08/15 13:44:40;;;;;;;;;;;26.10;96.60;;;;;;5064385;28;19948;-51
2022/08/15 13:47:06;;;;;;;;;;;26.10;96.40;;;;;;5064349;28;20197;-51
2022/08/15 13:49:36;;;;;;;;;;;26.20;96.40;;;;;;5064438;28;20189;-52
2022/08/15 13:52:02;;;;;;;;;;;26.20;96.30;;;;;;5064697;28;19909;-52
2022/08/15 13:54:29;;;;;;;;;;;26.20;96.20;;;;;;5064468;28;20193;-52
2022/08/15 13:56:55;;;;;;;;;;;26.20;96.20;;;;;;5064230;28;19912;-54
2022/08/15 13:59:21;;;;;;;;;;;26.20;96.30;;;;;;5064336;28;19983;-55
2022/08/15 14:01:49;;;;;;;;;;;26.20;96.20;;;;;;5064427;28;19905;-51
2022/08/15 14:04:17;;;;;;;;;;;26.30;96.40;;;;;;5064743;28;20149;-54
2022/08/15 14:06:44;;;;;;;;;;;26.30;96.40;;;;;;5064222;28;19909;-54
2022/08/15 14:09:11;;;;;;;;;;;26.30;96.40;;;;;;5064897;28;19924;-50
2022/08/15 14:11:37;;;;;;;;;;;26.40;96.40;;;;;;5064113;28;19971;-53
2022/08/15 14:14:05;;;;;;;;;;;26.40;96.40;;;;;;5064126;28;19921;-57
2022/08/15 14:16:33;;;;;;;;;;;26.40;96.40;;;;;;5064273;28;19909;-57
2022/08/15 14:19:00;;;;;;;;;;;26.40;96.30;;;;;;5064620;28;19913;-53
2022/08/15 14:21:26;;;;;;;;;;;26.50;96.30;;;;;;5068407;28;19920;-54
2022/08/15 14:23:53;;;;;;;;;;;26.50;96.10;;;;;;5068521;28;19999;-55
2022/08/15 14:26:24;;;;;;;;;;;26.50;96.00;;;;;;5068484;28;19904;-57
2022/08/15 14:28:53;;;;;;;;;;;26.50;95.90;;;;;;5068220;28;19913;-52
2022/08/15 14:31:19;;;;;;;;;;;26.50;95.80;;;;;;5068617;28;19908;-55
2022/08/15 14:33:45;;;;;;;;;;;26.60;95.70;;;;;;5068489;28;19936;-52
2022/08/15 14:36:11;;;;;;;;;;;26.60;95.60;;;;;;5068250;28;19908;-54
2022/08/15 14:38:37;;;;;;;;;;;26.60;95.50;;;;;;5068283;28;19916;-53
2022/08/15 14:41:03;;;;;;;;;;;26.60;95.40;;;;;;5067992;28;19909;-55
2022/08/15 14:43:30;;;;;;;;;;;26.60;95.20;;;;;;5068089;28;19963;-54